createdAt,value
2022-08-09T00:01:55.346Z,19.08
2022-08-09T00:04:34.750Z,19.09
2022-08-09T00:07:02.703Z,19.00
2022-08-09T00:09:29.730Z,19.06
2022-08-09T00:12:04.559Z,19.06
2022-08-09T00:14:38.300Z,19.08
2022-08-09T00:17:05.846Z,19.08
2022-08-09T00:19:34.119Z,18.99
2022-08-09T00:22:03.658Z,18.84
2022-08-09T00:24:32.248Z,18.75
2022-08-09T00:27:00.186Z,18.70
2022-08-09T00:29:39.875Z,18.71
2022-08-09T00:32:26.585Z,18.72
2022-08-09T00:35:03.512Z,18.63
2022-08-09T00:37:32.533Z,18.59
2022-08-09T00:40:13.568Z,18.51
2022-08-09T00:44:25.872Z,18.48
2022-08-09T00:45:34.818Z,18.42
2022-08-09T00:48:04.098Z,18.45
2022-08-09T00:50:32.422Z,18.48
2022-08-09T00:53:00.190Z,18.48
2022-08-09T00:56:03.809Z,18.41
2022-08-09T00:58:27.726Z,18.43
2022-08-09T01:00:59.224Z,18.40
2022-08-09T01:03:46.430Z,18.39
2022-08-09T01:06:53.849Z,18.36
2022-08-09T01:09:24.705Z,18.38
2022-08-09T01:12:11.841Z,18.43
2022-08-09T01:14:52.944Z,18.36
2022-08-09T01:17:30.500Z,18.31
2022-08-09T01:20:06.587Z,18.33
2022-08-09T01:22:34.766Z,18.33
2022-08-09T01:25:29.561Z,18.33
2022-08-09T01:28:01.456Z,18.41
2022-08-09T01:30:46.670Z,18.41
2022-08-09T01:33:21.908Z,18.37
2022-08-09T01:35:55.437Z,18.38
2022-08-09T01:38:26.523Z,18.39
2022-08-09T01:41:07.056Z,18.43
2022-08-09T01:43:50.339Z,18.50
2022-08-09T01:46:27.301Z,18.53
2022-08-09T01:49:00.128Z,18.55
2022-08-09T01:51:32.531Z,18.57
2022-08-09T01:54:02.349Z,18.57
2022-08-09T01:56:33.592Z,18.61
2022-08-09T01:59:04.183Z,18.61
2022-08-09T02:01:57.989Z,18.61
2022-08-09T02:04:22.269Z,18.61
2022-08-09T02:07:15.588Z,18.72
2022-08-09T02:10:03.850Z,18.79
2022-08-09T02:12:33.935Z,18.84
2022-08-09T02:15:03.204Z,18.84
2022-08-09T02:18:00.750Z,18.84
2022-08-09T02:20:26.531Z,18.86
2022-08-09T02:23:02.590Z,18.88
2022-08-09T02:25:42.269Z,18.88
2022-08-09T02:28:37.525Z,18.84
2022-08-09T02:31:28.142Z,18.82
2022-08-09T02:34:06.942Z,18.78
2022-08-09T02:36:44.489Z,18.73
2022-08-09T02:39:33.259Z,18.72
2022-08-09T02:42:05.714Z,18.65
2022-08-09T02:44:40.639Z,18.61
2022-08-09T02:47:12.142Z,18.61
2022-08-09T02:50:09.747Z,18.68
2022-08-09T02:52:55.468Z,18.73
2022-08-09T02:55:33.551Z,18.70
2022-08-09T02:58:35.362Z,18.68
2022-08-09T03:01:03.986Z,18.71
2022-08-09T03:04:12.291Z,18.76
2022-08-09T03:06:22.968Z,18.75
2022-08-09T03:08:54.202Z,18.81
2022-08-09T03:11:30.074Z,18.84
2022-08-09T03:14:12.221Z,18.77
2022-08-09T03:16:45.339Z,18.81
2022-08-09T03:19:58.093Z,18.91
2022-08-09T03:22:06.034Z,18.92
2022-08-09T03:24:52.187Z,18.96
2022-08-09T03:27:21.182Z,19.01
2022-08-09T03:30:00.866Z,19.03
2022-08-09T03:32:36.787Z,19.08
2022-08-09T03:35:14.956Z,19.14
2022-08-09T03:37:56.414Z,19.14
2022-08-09T03:40:25.845Z,19.21
2022-08-09T03:42:58.371Z,19.30
2022-08-09T03:46:04.514Z,19.39
2022-08-09T03:48:12.531Z,19.39
2022-08-09T03:50:49.362Z,19.38
2022-08-09T03:53:20.809Z,19.34
2022-08-09T03:55:51.563Z,19.38
2022-08-09T03:58:21.223Z,19.52
2022-08-09T04:00:49.737Z,19.58
2022-08-09T04:03:35.390Z,19.67
2022-08-09T04:06:07.106Z,19.69
2022-08-09T04:08:34.313Z,19.70
2022-08-09T04:11:01.838Z,19.66
2022-08-09T04:14:37.370Z,19.70
2022-08-09T04:16:21.153Z,19.74
2022-08-09T04:18:49.199Z,19.67
2022-08-09T04:21:18.531Z,19.58
2022-08-09T04:23:53.688Z,19.48
2022-08-09T04:26:23.431Z,19.48
2022-08-09T04:28:50.808Z,19.42
2022-08-09T04:31:19.094Z,19.32
2022-08-09T04:33:56.747Z,19.23
2022-08-09T04:36:29.299Z,19.17
2022-08-09T04:39:01.686Z,19.19
2022-08-09T04:41:33.315Z,19.15
2022-08-09T04:44:09.798Z,19.17
2022-08-09T04:46:58.988Z,19.24
2022-08-09T04:49:53.881Z,19.19
2022-08-09T04:52:26.638Z,19.12
2022-08-09T04:55:00.573Z,19.02
2022-08-09T04:57:53.889Z,19.02
2022-08-09T05:00:16.617Z,19.00
2022-08-09T05:02:44.380Z,19.11
2022-08-09T05:05:31.340Z,19.22
2022-08-09T05:08:05.615Z,19.22
2022-08-09T05:10:34.267Z,19.15
2022-08-09T05:13:04.002Z,19.14
2022-08-09T05:15:39.107Z,19.21
2022-08-09T05:18:57.679Z,19.23
2022-08-09T05:20:58.011Z,19.20
2022-08-09T05:23:55.528Z,19.26
2022-08-09T05:26:15.990Z,19.44
2022-08-09T05:28:53.343Z,19.63
2022-08-09T05:31:37.094Z,19.71
2022-08-09T05:34:07.139Z,19.78
2022-08-09T05:36:47.031Z,19.96
2022-08-09T05:39:28.862Z,20.17
2022-08-09T05:42:01.722Z,20.13
2022-08-09T05:44:32.741Z,20.28
2022-08-09T05:47:00.851Z,20.61
2022-08-09T05:50:23.425Z,20.80
2022-08-09T05:52:14.700Z,20.95
2022-08-09T05:54:42.694Z,21.21
2022-08-09T05:57:12.823Z,21.27
2022-08-09T05:59:41.850Z,21.68
2022-08-09T06:02:10.037Z,22.24
2022-08-09T06:04:37.123Z,22.44
2022-08-09T06:07:11.682Z,22.10
2022-08-09T06:10:01.811Z,21.61
2022-08-09T06:12:33.615Z,21.06
2022-08-09T06:15:01.891Z,20.82
2022-08-09T06:17:39.709Z,20.50
2022-08-09T06:20:08.047Z,20.17
2022-08-09T06:22:35.485Z,20.09
2022-08-09T06:25:03.203Z,20.01
2022-08-09T06:27:42.114Z,20.00
2022-08-09T06:30:10.560Z,19.91
2022-08-09T06:32:59.157Z,19.99
2022-08-09T06:35:56.498Z,19.99
2022-08-09T06:38:16.437Z,19.99
2022-08-09T06:40:43.617Z,19.94
2022-08-09T06:43:11.524Z,19.81
2022-08-09T06:46:06.771Z,19.69
2022-08-09T06:48:26.175Z,19.57
2022-08-09T06:51:00.007Z,19.46
2022-08-09T06:53:27.138Z,19.42
2022-08-09T06:56:00.533Z,19.44
2022-08-09T07:00:47.519Z,19.49
2022-08-09T07:01:14.590Z,19.49
2022-08-09T07:03:52.356Z,19.48
2022-08-09T07:06:21.591Z,19.46
2022-08-09T07:08:52.358Z,19.38
2022-08-09T07:11:25.244Z,19.37
2022-08-09T07:14:04.156Z,19.44
2022-08-09T07:16:41.286Z,19.50
2022-08-09T07:19:15.212Z,19.62
2022-08-09T07:21:57.502Z,19.60
2022-08-09T07:24:32.197Z,19.64
2022-08-09T07:27:24.044Z,19.67
2022-08-09T07:29:58.651Z,19.69
2022-08-09T07:32:31.797Z,19.73
2022-08-09T07:34:59.658Z,19.88
2022-08-09T07:37:26.513Z,20.06
2022-08-09T07:39:53.894Z,20.35
2022-08-09T07:42:29.068Z,20.71
2022-08-09T07:45:06.375Z,20.78
2022-08-09T07:47:49.563Z,20.55
2022-08-09T07:50:32.970Z,20.49
2022-08-09T07:53:05.271Z,20.56
2022-08-09T07:55:41.441Z,21.27
2022-08-09T07:58:21.600Z,22.61
2022-08-09T08:01:05.923Z,22.97
2022-08-09T08:03:36.991Z,24.38
2022-08-09T08:06:04.911Z,24.76
2022-08-09T08:09:01.060Z,24.82
2022-08-09T08:12:12.058Z,23.99
2022-08-09T08:14:06.753Z,23.81
2022-08-09T08:16:34.527Z,25.07
2022-08-09T08:19:03.301Z,25.59
2022-08-09T08:21:32.248Z,25.27
2022-08-09T08:24:01.229Z,25.72
2022-08-09T08:26:41.827Z,26.10
2022-08-09T08:29:27.441Z,27.23
2022-08-09T08:32:03.234Z,26.66
2022-08-09T08:34:33.540Z,26.61
2022-08-09T08:37:01.658Z,26.43
2022-08-09T08:39:28.842Z,26.99
2022-08-09T08:41:58.691Z,26.91
2022-08-09T08:44:29.655Z,26.35
2022-08-09T08:47:05.014Z,25.81
2022-08-09T08:49:48.325Z,25.00
2022-08-09T08:55:09.822Z,24.68
2022-08-09T08:57:38.170Z,24.48
2022-08-09T09:00:20.352Z,24.36
2022-08-09T09:02:52.952Z,24.74
2022-08-09T09:05:57.982Z,27.11
2022-08-09T09:08:30.538Z,27.99
2022-08-09T09:11:04.129Z,28.43
2022-08-09T09:13:54.803Z,29.37
2022-08-09T09:16:31.183Z,29.90
2022-08-09T09:19:37.345Z,30.76
2022-08-09T09:22:11.907Z,32.26
2022-08-09T09:24:49.940Z,33.14
2022-08-09T09:28:03.588Z,33.32
2022-08-09T09:30:28.848Z,35.41
2022-08-09T09:33:16.554Z,39.00
2022-08-09T09:36:00.910Z,38.47
2022-08-09T09:38:53.219Z,36.28
2022-08-09T09:41:32.899Z,34.81
2022-08-09T09:44:11.928Z,32.45
2022-08-09T09:46:50.750Z,30.14
2022-08-09T09:49:31.652Z,28.76
2022-08-09T09:52:33.401Z,27.82
2022-08-09T09:55:02.857Z,27.05
2022-08-09T09:58:03.426Z,26.53
2022-08-09T10:00:32.349Z,26.13
2022-08-09T10:03:11.624Z,26.01
2022-08-09T10:06:04.175Z,26.14
2022-08-09T10:08:31.498Z,26.05
2022-08-09T10:10:58.901Z,26.00
2022-08-09T10:13:45.254Z,25.73
2022-08-09T10:16:57.313Z,25.54
2022-08-09T10:19:06.283Z,25.31
2022-08-09T10:21:46.070Z,25.12
2022-08-09T10:24:25.745Z,25.16
2022-08-09T10:27:17.087Z,25.39
2022-08-09T10:30:43.979Z,25.49
2022-08-09T10:32:42.490Z,25.44
2022-08-09T10:35:10.477Z,25.32
2022-08-09T10:37:40.612Z,25.23
2022-08-09T10:40:11.910Z,25.21
2022-08-09T10:42:59.800Z,25.11
2022-08-09T10:45:31.751Z,24.82
2022-08-09T10:48:36.848Z,24.61
2022-08-09T10:51:14.988Z,24.42
2022-08-09T10:54:02.078Z,24.29
2022-08-09T10:56:34.484Z,24.19
2022-08-09T10:59:23.141Z,24.46
2022-08-09T11:03:13.823Z,24.74
2022-08-09T11:04:38.188Z,24.95
2022-08-09T11:07:26.584Z,25.01
2022-08-09T11:09:53.663Z,24.81
2022-08-09T11:12:29.913Z,24.66
2022-08-09T11:15:01.790Z,24.44
2022-08-09T11:17:31.216Z,24.20
2022-08-09T11:20:22.520Z,24.16
2022-08-09T11:22:56.535Z,24.07
2022-08-09T11:25:44.853Z,23.92
2022-08-09T11:28:35.143Z,24.11
2022-08-09T11:31:43.385Z,24.72
2022-08-09T11:34:35.158Z,24.89
2022-08-09T11:37:07.144Z,24.56
2022-08-09T11:40:05.859Z,24.49
2022-08-09T11:42:53.879Z,24.60
2022-08-09T11:45:22.080Z,24.75
2022-08-09T11:47:52.813Z,24.73
2022-08-09T11:50:55.402Z,24.44
2022-08-09T11:53:57.829Z,24.33
2022-08-09T11:56:02.409Z,24.29
2022-08-09T11:58:33.200Z,24.42
2022-08-09T12:01:15.540Z,24.37
2022-08-09T12:04:06.433Z,24.26
2022-08-09T12:06:36.116Z,24.27
2022-08-09T12:09:17.652Z,24.14
2022-08-09T12:12:12.861Z,23.84
2022-08-09T12:15:03.678Z,23.53
2022-08-09T12:17:41.598Z,23.47
2022-08-09T12:20:24.598Z,23.74
2022-08-09T12:22:59.566Z,23.90
2022-08-09T12:25:31.922Z,23.83
2022-08-09T12:29:00.150Z,23.74
2022-08-09T12:31:11.081Z,23.77
2022-08-09T12:33:58.351Z,23.95
2022-08-09T12:36:31.254Z,23.95
2022-08-09T12:39:00.075Z,24.01
2022-08-09T12:41:33.698Z,23.86
2022-08-09T12:44:09.706Z,23.75
2022-08-09T12:46:50.233Z,23.94
2022-08-09T12:49:18.198Z,24.07
2022-08-09T12:52:07.201Z,24.23
2022-08-09T12:56:10.831Z,24.16
2022-08-09T12:57:43.114Z,24.21
2022-08-09T13:00:25.932Z,24.16
2022-08-09T13:02:58.235Z,24.08
2022-08-09T13:05:50.870Z,24.06
2022-08-09T13:08:39.756Z,24.11
2022-08-09T13:11:13.208Z,24.08
2022-08-09T13:14:42.609Z,24.10
2022-08-09T13:16:46.149Z,24.05
2022-08-09T13:20:08.589Z,24.19
2022-08-09T13:22:35.261Z,24.08
2022-08-09T13:25:07.512Z,23.93
2022-08-09T13:27:39.847Z,23.75
2022-08-09T13:30:50.543Z,23.50
2022-08-09T13:33:07.048Z,23.25
2022-08-09T13:36:24.501Z,23.06
2022-08-09T13:38:55.996Z,22.85
2022-08-09T13:41:50.705Z,22.67
2022-08-09T13:44:00.011Z,22.61
2022-08-09T13:47:17.959Z,22.58
2022-08-09T13:49:19.202Z,22.63
2022-08-09T13:51:58.853Z,22.65
2022-08-09T13:54:30.378Z,22.63
2022-08-09T13:56:57.521Z,22.58
2022-08-09T13:59:25.916Z,22.65
2022-08-09T14:02:08.411Z,22.62
2022-08-09T14:04:37.125Z,22.70
2022-08-09T14:07:05.147Z,22.78
2022-08-09T14:09:34.806Z,22.82
2022-08-09T14:12:07.049Z,22.88
2022-08-09T14:14:43.987Z,22.89
2022-08-09T14:17:13.107Z,22.86
2022-08-09T14:19:44.213Z,22.78
2022-08-09T14:22:11.718Z,22.79
2022-08-09T14:24:39.604Z,22.86
2022-08-09T14:27:20.446Z,22.86
2022-08-09T14:30:34.932Z,22.87
2022-08-09T14:32:34.936Z,22.81
2022-08-09T14:35:06.486Z,22.78
2022-08-09T14:37:41.229Z,22.65
2022-08-09T14:41:00.307Z,22.59
2022-08-09T14:43:07.286Z,22.55
2022-08-09T14:46:59.034Z,22.54
2022-08-09T14:48:20.884Z,22.57
2022-08-09T14:50:53.746Z,22.56
2022-08-09T14:53:22.149Z,22.61
2022-08-09T14:55:53.334Z,22.66
2022-08-09T14:58:21.691Z,22.65
2022-08-09T15:00:51.230Z,22.69
2022-08-09T15:03:20.552Z,22.69
2022-08-09T15:05:52.270Z,22.64
2022-08-09T15:08:24.009Z,22.50
2022-08-09T15:11:00.329Z,22.40
2022-08-09T15:13:47.801Z,22.41
2022-08-09T15:16:15.960Z,22.33
2022-08-09T15:18:43.060Z,22.35
2022-08-09T15:22:01.032Z,22.31
2022-08-09T15:24:05.679Z,22.28
2022-08-09T15:26:46.302Z,22.21
2022-08-09T15:30:58.706Z,22.17
2022-08-09T15:32:01.391Z,22.11
2022-08-09T15:34:34.469Z,22.09
2022-08-09T15:37:03.915Z,22.10
2022-08-09T15:39:43.731Z,22.08
2022-08-09T15:42:19.650Z,21.99
2022-08-09T15:44:48.760Z,21.89
2022-08-09T15:47:21.673Z,21.84
2022-08-09T15:50:03.592Z,21.78
2022-08-09T15:52:36.940Z,21.77
2022-08-09T15:55:06.393Z,21.80
2022-08-09T15:57:34.225Z,21.77
2022-08-09T16:00:14.048Z,21.63
2022-08-09T16:02:53.378Z,21.69
2022-08-09T16:05:23.349Z,21.73
2022-08-09T16:07:51.196Z,21.73
2022-08-09T16:10:54.875Z,21.73
2022-08-09T16:13:20.984Z,21.65
2022-08-09T16:16:11.730Z,21.59
2022-08-09T16:18:45.353Z,21.52
2022-08-09T16:21:16.811Z,21.52
2022-08-09T16:23:54.575Z,21.54
2022-08-09T16:26:35.385Z,21.53
2022-08-09T16:29:11.650Z,21.53
2022-08-09T16:32:19.480Z,21.49
2022-08-09T16:34:55.005Z,21.41
2022-08-09T16:37:53.178Z,21.39
2022-08-09T16:40:20.488Z,21.39
2022-08-09T16:42:53.149Z,21.44
2022-08-09T16:45:20.192Z,21.41
2022-08-09T16:48:38.092Z,21.43
2022-08-09T16:50:39.060Z,21.36
2022-08-09T16:53:08.828Z,21.38
2022-08-09T16:55:57.679Z,21.39
2022-08-09T16:58:23.697Z,21.38
2022-08-09T17:00:50.733Z,21.39
2022-08-09T17:03:22.233Z,21.37
2022-08-09T17:09:03.159Z,21.40
2022-08-09T17:11:33.009Z,21.35
2022-08-09T17:14:25.701Z,21.30
2022-08-09T17:16:54.043Z,21.26
2022-08-09T17:19:21.168Z,21.16
2022-08-09T17:21:48.105Z,21.05
2022-08-09T17:24:30.302Z,20.97
2022-08-09T17:26:58.480Z,20.93
2022-08-09T17:29:31.765Z,20.91
2022-08-09T17:32:05.090Z,20.86
2022-08-09T17:35:07.859Z,20.80
2022-08-09T17:37:19.459Z,20.71
2022-08-09T17:39:52.855Z,20.66
2022-08-09T17:42:55.363Z,20.57
2022-08-09T17:45:26.883Z,20.54
2022-08-09T17:48:02.816Z,20.48
2022-08-09T17:50:36.669Z,20.42
2022-08-09T17:53:19.233Z,20.35
2022-08-09T17:55:51.949Z,20.29
2022-08-09T17:58:26.914Z,20.36
2022-08-09T18:00:56.689Z,20.43
2022-08-09T18:03:26.302Z,20.44
2022-08-09T18:05:57.104Z,20.43
2022-08-09T18:08:27.370Z,20.40
2022-08-09T18:11:01.932Z,20.42
2022-08-09T18:13:43.683Z,20.42
2022-08-09T18:16:29.060Z,20.36
2022-08-09T18:18:59.349Z,20.28
2022-08-09T18:21:31.903Z,20.28
2022-08-09T18:24:14.189Z,20.24
2022-08-09T18:26:47.983Z,20.23
2022-08-09T18:30:38.998Z,20.24
2022-08-09T18:32:07.357Z,20.25
2022-08-09T18:34:39.215Z,20.22
2022-08-09T18:37:10.432Z,20.19
2022-08-09T18:39:54.397Z,20.18
2022-08-09T18:42:31.251Z,20.17
2022-08-09T18:45:01.008Z,20.13
2022-08-09T18:47:36.991Z,20.11
2022-08-09T18:50:06.186Z,20.07
2022-08-09T18:52:36.304Z,20.01
2022-08-09T18:55:13.531Z,19.96
2022-08-09T18:57:44.580Z,19.85
2022-08-09T19:00:19.133Z,19.83
2022-08-09T19:02:50.844Z,19.76
2022-08-09T19:05:28.696Z,19.78
2022-08-09T19:08:10.690Z,19.77
2022-08-09T19:10:41.089Z,19.73
2022-08-09T19:13:23.229Z,19.72
2022-08-09T19:16:01.467Z,19.67
2022-08-09T19:18:37.385Z,19.64
2022-08-09T19:21:09.295Z,19.56
2022-08-09T19:24:37.274Z,19.51
2022-08-09T19:26:51.445Z,19.44
2022-08-09T19:29:20.652Z,19.41
2022-08-09T19:31:49.497Z,19.40
2022-08-09T19:34:22.678Z,19.37
2022-08-09T19:36:52.972Z,19.36
2022-08-09T19:39:43.111Z,19.30
2022-08-09T19:42:08.180Z,19.28
2022-08-09T19:44:35.532Z,19.26
2022-08-09T19:47:03.153Z,19.23
2022-08-09T19:50:07.498Z,19.16
2022-08-09T19:52:18.369Z,19.13
2022-08-09T19:54:45.494Z,19.11
2022-08-09T19:57:12.501Z,19.15
2022-08-09T20:00:01.886Z,19.16
2022-08-09T20:04:09.785Z,19.12
2022-08-09T20:05:16.649Z,19.12
2022-08-09T20:07:59.545Z,19.13
2022-08-09T20:10:36.856Z,19.16
2022-08-09T20:13:06.296Z,19.19
2022-08-09T20:16:35.773Z,19.15
2022-08-09T20:18:22.403Z,19.16
2022-08-09T20:20:55.011Z,19.18
2022-08-09T20:23:23.710Z,19.16
2022-08-09T20:25:52.346Z,19.14
2022-08-09T20:28:27.557Z,19.14
2022-08-09T20:30:58.948Z,19.10
2022-08-09T20:33:26.095Z,19.11
2022-08-09T20:35:55.740Z,19.09
2022-08-09T20:38:33.970Z,19.08
2022-08-09T20:41:09.773Z,19.06
2022-08-09T20:43:38.927Z,19.08
2022-08-09T20:46:34.076Z,19.06
2022-08-09T20:48:59.127Z,19.07
2022-08-09T20:51:26.761Z,19.08
2022-08-09T20:53:57.410Z,19.09
2022-08-09T20:56:26.708Z,19.10
2022-08-09T20:59:00.355Z,19.06
2022-08-09T21:01:34.725Z,19.06
2022-08-09T21:05:57.042Z,18.96
2022-08-09T21:07:11.312Z,18.88
2022-08-09T21:09:45.233Z,18.88
2022-08-09T21:14:48.215Z,18.90
2022-08-09T21:18:21.319Z,18.85
2022-08-09T21:20:25.258Z,18.77
2022-08-09T21:22:52.475Z,18.70
2022-08-09T21:25:43.751Z,18.72
2022-08-09T21:28:12.048Z,18.58
2022-08-09T21:30:42.472Z,18.66
2022-08-09T21:33:09.750Z,18.74
2022-08-09T21:35:40.776Z,18.72
2022-08-09T21:38:21.050Z,18.70
2022-08-09T21:40:59.647Z,18.68
2022-08-09T21:43:56.415Z,18.70
2022-08-09T21:46:13.661Z,18.71
2022-08-09T21:48:42.410Z,18.69
2022-08-09T21:51:14.147Z,18.63
2022-08-09T21:53:44.915Z,18.60
2022-08-09T21:56:28.311Z,18.55
2022-08-09T21:58:59.309Z,18.52
2022-08-09T22:01:58.531Z,18.59
2022-08-09T22:04:13.052Z,18.60
2022-08-09T22:06:43.215Z,18.52
2022-08-09T22:09:26.035Z,18.45
2022-08-09T22:12:17.921Z,18.44
2022-08-09T22:14:39.689Z,18.39
2022-08-09T22:17:08.247Z,18.38
2022-08-09T22:19:59.503Z,18.36
2022-08-09T22:22:24.288Z,18.36
2022-08-09T22:25:18.171Z,18.38
2022-08-09T22:27:41.138Z,18.36
2022-08-09T22:30:10.124Z,18.34
2022-08-09T22:32:40.718Z,18.33
2022-08-09T22:36:02.718Z,18.33
2022-08-09T22:38:07.012Z,18.35
2022-08-09T22:40:35.621Z,18.37
2022-08-09T22:43:16.207Z,18.35
2022-08-09T22:48:14.402Z,18.27
2022-08-09T22:48:36.932Z,18.19
2022-08-09T22:51:10.345Z,18.18
2022-08-09T22:53:44.351Z,18.16
2022-08-09T22:56:31.390Z,18.13
2022-08-09T22:59:06.074Z,18.14
2022-08-09T23:01:49.931Z,18.14
2022-08-09T23:04:19.229Z,18.14
2022-08-09T23:07:11.095Z,18.11
2022-08-09T23:09:39.048Z,18.05
2022-08-09T23:12:06.715Z,18.02
2022-08-09T23:14:42.125Z,18.03
2022-08-09T23:17:09.993Z,18.03
2022-08-09T23:20:06.791Z,18.05
2022-08-09T23:22:24.178Z,18.01
2022-08-09T23:24:51.316Z,18.06
2022-08-09T23:27:18.163Z,18.08
2022-08-09T23:29:45.901Z,18.06
2022-08-09T23:32:12.869Z,18.09
2022-08-09T23:34:40.006Z,18.09
2022-08-09T23:37:07.268Z,18.13
2022-08-09T23:39:34.918Z,18.12
2022-08-09T23:42:03.177Z,18.06
2022-08-09T23:44:30.402Z,18.06
2022-08-09T23:46:58.381Z,18.05
2022-08-09T23:49:26.335Z,18.05
2022-08-09T23:51:55.649Z,18.01
2022-08-09T23:54:25.202Z,18.05
2022-08-09T23:56:56.071Z,18.03
2022-08-09T23:59:24.457Z,18.02
